sensor_id;sensor_type;location;lat;lon;timestamp;temperature;humidity
19898;DHT22;10111;50.814;4.572;2022-12-07T00:00:46;7.00;99.90
19898;DHT22;10111;50.814;4.572;2022-12-07T00:03:11;6.90;99.90
19898;DHT22;10111;50.814;4.572;2022-12-07T00:05:37;6.90;99.90
19898;DHT22;10111;50.814;4.572;2022-12-07T00:08:03;6.90;99.90
19898;DHT22;10111;50.814;4.572;2022-12-07T00:10:28;6.80;99.90
19898;DHT22;10111;50.814;4.572;2022-12-07T00:12:54;6.70;99.90
19898;DHT22;10111;50.814;4.572;2022-12-07T00:15:19;6.60;99.90
19898;DHT22;10111;50.814;4.572;2022-12-07T00:17:45;6.60;99.90
19898;DHT22;10111;50.814;4.572;2022-12-07T00:20:11;6.60;99.90
19898;DHT22;10111;50.814;4.572;2022-12-07T00:22:36;6.60;99.90
19898;DHT22;10111;50.814;4.572;2022-12-07T00:25:02;6.60;99.90
19898;DHT22;10111;50.814;4.572;2022-12-07T00:27:28;6.60;99.90
19898;DHT22;10111;50.814;4.572;2022-12-07T00:29:54;6.50;99.90
19898;DHT22;10111;50.814;4.572;2022-12-07T00:32:19;6.50;99.90
19898;DHT22;10111;50.814;4.572;2022-12-07T00:34:45;6.30;99.90
19898;DHT22;10111;50.814;4.572;2022-12-07T00:37:10;6.30;99.90
19898;DHT22;10111;50.814;4.572;2022-12-07T00:39:37;6.40;99.90
19898;DHT22;10111;50.814;4.572;2022-12-07T00:42:03;6.40;99.90
19898;DHT22;10111;50.814;4.572;2022-12-07T00:44:29;6.50;99.90
19898;DHT22;10111;50.814;4.572;2022-12-07T00:46:54;6.40;99.90
19898;DHT22;10111;50.814;4.572;2022-12-07T00:49:21;6.10;99.90
19898;DHT22;10111;50.814;4.572;2022-12-07T00:51:48;6.10;99.90
19898;DHT22;10111;50.814;4.572;2022-12-07T00:54:14;6.10;99.90
19898;DHT22;10111;50.814;4.572;2022-12-07T00:56:40;6.20;99.90
19898;DHT22;10111;50.814;4.572;2022-12-07T00:59:06;6.10;99.90
19898;DHT22;10111;50.814;4.572;2022-12-07T01:01:34;6.00;99.90
19898;DHT22;10111;50.814;4.572;2022-12-07T01:04:01;6.00;99.90
19898;DHT22;10111;50.814;4.572;2022-12-07T01:06:27;6.00;99.90
19898;DHT22;10111;50.814;4.572;2022-12-07T01:08:53;6.00;99.90
19898;DHT22;10111;50.814;4.572;2022-12-07T01:11:23;6.10;99.90
19898;DHT22;10111;50.814;4.572;2022-12-07T01:13:53;6.10;99.90
19898;DHT22;10111;50.814;4.572;2022-12-07T01:16:20;6.10;99.90
19898;DHT22;10111;50.814;4.572;2022-12-07T01:18:49;5.90;99.90
19898;DHT22;10111;50.814;4.572;2022-12-07T01:21:25;6.00;99.90
19898;DHT22;10111;50.814;4.572;2022-12-07T01:23:51;5.90;99.90
19898;DHT22;10111;50.814;4.572;2022-12-07T01:26:20;5.80;99.90
19898;DHT22;10111;50.814;4.572;2022-12-07T01:28:47;5.70;99.90
19898;DHT22;10111;50.814;4.572;2022-12-07T01:31:18;5.70;99.90
19898;DHT22;10111;50.814;4.572;2022-12-07T01:33:47;5.70;99.90
19898;DHT22;10111;50.814;4.572;2022-12-07T01:36:25;5.60;99.90
19898;DHT22;10111;50.814;4.572;2022-12-07T01:38:56;5.50;99.90
19898;DHT22;10111;50.814;4.572;2022-12-07T01:41:23;5.50;99.90
19898;DHT22;10111;50.814;4.572;2022-12-07T01:44:09;5.80;99.90
19898;DHT22;10111;50.814;4.572;2022-12-07T01:46:35;5.60;99.90
19898;DHT22;10111;50.814;4.572;2022-12-07T01:49:03;5.50;99.90
19898;DHT22;10111;50.814;4.572;2022-12-07T01:51:29;5.50;99.90
19898;DHT22;10111;50.814;4.572;2022-12-07T01:53:55;5.70;99.90
19898;DHT22;10111;50.814;4.572;2022-12-07T01:56:25;5.50;99.90
19898;DHT22;10111;50.814;4.572;2022-12-07T01:58:52;5.40;99.90
19898;DHT22;10111;50.814;4.572;2022-12-07T02:01:18;5.40;99.90
19898;DHT22;10111;50.814;4.572;2022-12-07T02:03:44;5.60;99.90
19898;DHT22;10111;50.814;4.572;2022-12-07T02:06:13;5.50;99.90
19898;DHT22;10111;50.814;4.572;2022-12-07T02:08:42;5.60;99.90
19898;DHT22;10111;50.814;4.572;2022-12-07T02:11:08;5.90;99.90
19898;DHT22;10111;50.814;4.572;2022-12-07T02:13:36;6.30;99.90
19898;DHT22;10111;50.814;4.572;2022-12-07T02:24:24;6.00;99.90
19898;DHT22;10111;50.814;4.572;2022-12-07T02:29:47;6.00;99.90
19898;DHT22;10111;50.814;4.572;2022-12-07T02:32:44;5.90;99.90
19898;DHT22;10111;50.814;4.572;2022-12-07T02:35:39;6.00;99.90
19898;DHT22;10111;50.814;4.572;2022-12-07T02:38:28;6.20;99.90
19898;DHT22;10111;50.814;4.572;2022-12-07T02:41:04;6.40;99.90
19898;DHT22;10111;50.814;4.572;2022-12-07T02:43:35;6.40;99.90
19898;DHT22;10111;50.814;4.572;2022-12-07T02:46:06;6.30;99.90
19898;DHT22;10111;50.814;4.572;2022-12-07T02:48:33;6.40;99.90
19898;DHT22;10111;50.814;4.572;2022-12-07T02:51:00;6.30;99.90
19898;DHT22;10111;50.814;4.572;2022-12-07T02:53:42;6.30;99.90
19898;DHT22;10111;50.814;4.572;2022-12-07T03:01:41;6.20;99.90
19898;DHT22;10111;50.814;4.572;2022-12-07T03:06:51;6.00;99.90
19898;DHT22;10111;50.814;4.572;2022-12-07T03:09:46;6.00;99.90
19898;DHT22;10111;50.814;4.572;2022-12-07T03:12:24;5.90;99.90
19898;DHT22;10111;50.814;4.572;2022-12-07T03:15:01;5.90;99.90
19898;DHT22;10111;50.814;4.572;2022-12-07T03:17:32;5.90;99.90
19898;DHT22;10111;50.814;4.572;2022-12-07T03:20:03;5.80;99.90
19898;DHT22;10111;50.814;4.572;2022-12-07T03:22:31;5.70;99.90
19898;DHT22;10111;50.814;4.572;2022-12-07T03:25:00;5.80;99.90
19898;DHT22;10111;50.814;4.572;2022-12-07T03:27:32;5.70;99.90
19898;DHT22;10111;50.814;4.572;2022-12-07T03:30:02;5.70;99.90
19898;DHT22;10111;50.814;4.572;2022-12-07T03:35:29;5.50;99.90
19898;DHT22;10111;50.814;4.572;2022-12-07T03:38:19;5.50;99.90
19898;DHT22;10111;50.814;4.572;2022-12-07T03:40:52;5.40;99.90
19898;DHT22;10111;50.814;4.572;2022-12-07T03:43:19;5.60;99.90
19898;DHT22;10111;50.814;4.572;2022-12-07T03:46:06;5.70;99.90
19898;DHT22;10111;50.814;4.572;2022-12-07T03:48:49;5.60;99.90
19898;DHT22;10111;50.814;4.572;2022-12-07T03:51:45;5.70;99.90
19898;DHT22;10111;50.814;4.572;2022-12-07T03:54:34;5.80;99.90
19898;DHT22;10111;50.814;4.572;2022-12-07T03:57:02;6.30;99.90
19898;DHT22;10111;50.814;4.572;2022-12-07T03:59:30;6.10;99.90
19898;DHT22;10111;50.814;4.572;2022-12-07T04:01:59;6.10;99.90
19898;DHT22;10111;50.814;4.572;2022-12-07T04:04:27;6.20;99.90
19898;DHT22;10111;50.814;4.572;2022-12-07T04:06:53;5.90;99.90
19898;DHT22;10111;50.814;4.572;2022-12-07T04:09:19;5.80;99.90
19898;DHT22;10111;50.814;4.572;2022-12-07T04:11:45;6.00;99.90
19898;DHT22;10111;50.814;4.572;2022-12-07T04:14:11;5.70;99.90
19898;DHT22;10111;50.814;4.572;2022-12-07T04:16:53;5.90;99.90
19898;DHT22;10111;50.814;4.572;2022-12-07T04:19:23;5.70;99.90
19898;DHT22;10111;50.814;4.572;2022-12-07T04:21:49;5.70;99.90
19898;DHT22;10111;50.814;4.572;2022-12-07T04:24:16;5.60;99.90
19898;DHT22;10111;50.814;4.572;2022-12-07T04:26:43;5.50;99.90
19898;DHT22;10111;50.814;4.572;2022-12-07T04:29:09;5.40;99.90
19898;DHT22;10111;50.814;4.572;2022-12-07T04:31:35;5.40;99.90
19898;DHT22;10111;50.814;4.572;2022-12-07T04:34:01;5.50;99.90
19898;DHT22;10111;50.814;4.572;2022-12-07T04:36:27;5.20;99.90
19898;DHT22;10111;50.814;4.572;2022-12-07T04:38:54;5.20;99.90
19898;DHT22;10111;50.814;4.572;2022-12-07T04:41:20;5.30;99.90
19898;DHT22;10111;50.814;4.572;2022-12-07T04:43:53;5.40;99.90
19898;DHT22;10111;50.814;4.572;2022-12-07T04:46:19;5.20;99.90
19898;DHT22;10111;50.814;4.572;2022-12-07T04:48:45;5.40;99.90
19898;DHT22;10111;50.814;4.572;2022-12-07T04:51:10;5.20;99.90
19898;DHT22;10111;50.814;4.572;2022-12-07T04:53:36;5.20;99.90
19898;DHT22;10111;50.814;4.572;2022-12-07T04:56:02;5.20;99.90
19898;DHT22;10111;50.814;4.572;2022-12-07T04:58:27;5.30;99.90
19898;DHT22;10111;50.814;4.572;2022-12-07T05:00:56;5.60;99.90
19898;DHT22;10111;50.814;4.572;2022-12-07T05:03:22;5.70;99.90
19898;DHT22;10111;50.814;4.572;2022-12-07T05:05:47;5.50;99.90
19898;DHT22;10111;50.814;4.572;2022-12-07T05:08:13;5.50;99.90
19898;DHT22;10111;50.814;4.572;2022-12-07T05:10:39;5.50;99.90
19898;DHT22;10111;50.814;4.572;2022-12-07T05:13:04;5.50;99.90
19898;DHT22;10111;50.814;4.572;2022-12-07T05:15:30;5.50;99.90
19898;DHT22;10111;50.814;4.572;2022-12-07T05:17:55;5.60;99.90
19898;DHT22;10111;50.814;4.572;2022-12-07T05:20:21;5.60;99.90
19898;DHT22;10111;50.814;4.572;2022-12-07T05:22:47;5.60;99.90
19898;DHT22;10111;50.814;4.572;2022-12-07T05:25:12;5.70;99.90
19898;DHT22;10111;50.814;4.572;2022-12-07T05:27:38;5.40;99.90
19898;DHT22;10111;50.814;4.572;2022-12-07T05:30:05;5.60;99.90
19898;DHT22;10111;50.814;4.572;2022-12-07T05:32:30;5.70;99.90
19898;DHT22;10111;50.814;4.572;2022-12-07T05:34:56;5.80;99.90
19898;DHT22;10111;50.814;4.572;2022-12-07T05:37:22;5.90;99.90
19898;DHT22;10111;50.814;4.572;2022-12-07T05:39:47;5.80;99.90
19898;DHT22;10111;50.814;4.572;2022-12-07T05:42:13;5.80;99.90
19898;DHT22;10111;50.814;4.572;2022-12-07T05:44:44;5.90;99.90
19898;DHT22;10111;50.814;4.572;2022-12-07T05:47:11;5.90;99.90
19898;DHT22;10111;50.814;4.572;2022-12-07T05:49:37;5.80;99.90
19898;DHT22;10111;50.814;4.572;2022-12-07T05:52:03;5.90;99.90
19898;DHT22;10111;50.814;4.572;2022-12-07T05:54:29;5.80;99.90
19898;DHT22;10111;50.814;4.572;2022-12-07T05:56:55;5.80;99.90
19898;DHT22;10111;50.814;4.572;2022-12-07T05:59:21;5.90;99.90
19898;DHT22;10111;50.814;4.572;2022-12-07T06:01:54;6.10;99.90
19898;DHT22;10111;50.814;4.572;2022-12-07T06:04:21;6.00;99.90
19898;DHT22;10111;50.814;4.572;2022-12-07T06:06:47;6.20;99.90
19898;DHT22;10111;50.814;4.572;2022-12-07T06:09:13;6.10;99.90
19898;DHT22;10111;50.814;4.572;2022-12-07T06:11:40;6.20;99.90
19898;DHT22;10111;50.814;4.572;2022-12-07T06:14:24;6.20;99.90
19898;DHT22;10111;50.814;4.572;2022-12-07T06:16:49;6.20;99.90
19898;DHT22;10111;50.814;4.572;2022-12-07T06:19:15;6.30;99.90
19898;DHT22;10111;50.814;4.572;2022-12-07T06:21:41;6.60;99.90
19898;DHT22;10111;50.814;4.572;2022-12-07T06:24:07;6.50;99.90
19898;DHT22;10111;50.814;4.572;2022-12-07T06:26:34;6.40;99.90
19898;DHT22;10111;50.814;4.572;2022-12-07T06:28:59;6.10;99.90
19898;DHT22;10111;50.814;4.572;2022-12-07T06:31:25;6.10;99.90
19898;DHT22;10111;50.814;4.572;2022-12-07T06:33:51;6.10;99.90
19898;DHT22;10111;50.814;4.572;2022-12-07T06:36:16;6.10;99.90
19898;DHT22;10111;50.814;4.572;2022-12-07T06:38:42;6.30;99.90
19898;DHT22;10111;50.814;4.572;2022-12-07T06:41:08;6.20;99.90
19898;DHT22;10111;50.814;4.572;2022-12-07T06:43:33;6.00;99.90
19898;DHT22;10111;50.814;4.572;2022-12-07T06:45:59;6.10;99.90
19898;DHT22;10111;50.814;4.572;2022-12-07T06:48:25;5.90;99.90
19898;DHT22;10111;50.814;4.572;2022-12-07T06:50:50;5.80;99.90
19898;DHT22;10111;50.814;4.572;2022-12-07T06:53:16;5.80;99.90
19898;DHT22;10111;50.814;4.572;2022-12-07T06:55:42;5.80;99.90
19898;DHT22;10111;50.814;4.572;2022-12-07T06:58:08;5.90;99.90
19898;DHT22;10111;50.814;4.572;2022-12-07T07:00:33;6.00;99.90
19898;DHT22;10111;50.814;4.572;2022-12-07T07:03:00;6.10;99.90
19898;DHT22;10111;50.814;4.572;2022-12-07T07:05:26;6.20;99.90
19898;DHT22;10111;50.814;4.572;2022-12-07T07:07:52;6.30;99.90
19898;DHT22;10111;50.814;4.572;2022-12-07T07:10:17;6.40;99.90
19898;DHT22;10111;50.814;4.572;2022-12-07T07:12:43;6.40;99.90
19898;DHT22;10111;50.814;4.572;2022-12-07T07:15:09;6.30;99.90
19898;DHT22;10111;50.814;4.572;2022-12-07T07:17:36;6.10;99.90
19898;DHT22;10111;50.814;4.572;2022-12-07T07:20:02;6.20;99.90
19898;DHT22;10111;50.814;4.572;2022-12-07T07:22:28;6.10;99.90
19898;DHT22;10111;50.814;4.572;2022-12-07T07:24:54;6.10;99.90
19898;DHT22;10111;50.814;4.572;2022-12-07T07:27:19;6.20;99.90
19898;DHT22;10111;50.814;4.572;2022-12-07T07:29:45;6.50;99.90
19898;DHT22;10111;50.814;4.572;2022-12-07T07:32:11;6.40;99.90
19898;DHT22;10111;50.814;4.572;2022-12-07T07:34:37;6.50;99.90
19898;DHT22;10111;50.814;4.572;2022-12-07T07:37:03;6.40;99.90
19898;DHT22;10111;50.814;4.572;2022-12-07T07:39:29;6.20;99.90
19898;DHT22;10111;50.814;4.572;2022-12-07T07:41:54;6.30;99.90
19898;DHT22;10111;50.814;4.572;2022-12-07T07:44:20;6.00;99.90
19898;DHT22;10111;50.814;4.572;2022-12-07T07:46:46;6.00;99.90
19898;DHT22;10111;50.814;4.572;2022-12-07T07:49:11;5.90;99.90
19898;DHT22;10111;50.814;4.572;2022-12-07T07:51:37;5.90;99.90
19898;DHT22;10111;50.814;4.572;2022-12-07T07:54:03;5.90;99.90
19898;DHT22;10111;50.814;4.572;2022-12-07T07:56:29;5.90;99.90
19898;DHT22;10111;50.814;4.572;2022-12-07T07:58:55;5.90;99.90
19898;DHT22;10111;50.814;4.572;2022-12-07T08:01:20;5.80;99.90
19898;DHT22;10111;50.814;4.572;2022-12-07T08:03:46;5.80;99.90
19898;DHT22;10111;50.814;4.572;2022-12-07T08:06:12;5.70;99.90
19898;DHT22;10111;50.814;4.572;2022-12-07T08:08:38;5.90;99.90
19898;DHT22;10111;50.814;4.572;2022-12-07T08:11:08;5.60;99.90
19898;DHT22;10111;50.814;4.572;2022-12-07T08:13:33;5.70;99.90
19898;DHT22;10111;50.814;4.572;2022-12-07T08:16:07;5.60;99.90
19898;DHT22;10111;50.814;4.572;2022-12-07T08:18:39;5.50;99.90
19898;DHT22;10111;50.814;4.572;2022-12-07T08:21:06;5.40;99.90
19898;DHT22;10111;50.814;4.572;2022-12-07T08:23:32;5.50;99.90
19898;DHT22;10111;50.814;4.572;2022-12-07T08:26:02;5.40;99.90
19898;DHT22;10111;50.814;4.572;2022-12-07T08:28:28;5.30;99.90
19898;DHT22;10111;50.814;4.572;2022-12-07T08:31:07;5.20;99.90
19898;DHT22;10111;50.814;4.572;2022-12-07T08:33:34;5.20;99.90
19898;DHT22;10111;50.814;4.572;2022-12-07T08:36:01;5.10;99.90
19898;DHT22;10111;50.814;4.572;2022-12-07T08:38:27;5.00;99.90
19898;DHT22;10111;50.814;4.572;2022-12-07T08:40:54;5.00;99.90
19898;DHT22;10111;50.814;4.572;2022-12-07T08:43:20;4.90;99.90
19898;DHT22;10111;50.814;4.572;2022-12-07T08:45:48;5.10;99.90
19898;DHT22;10111;50.814;4.572;2022-12-07T08:48:17;4.90;99.90
19898;DHT22;10111;50.814;4.572;2022-12-07T08:50:47;5.00;99.90
19898;DHT22;10111;50.814;4.572;2022-12-07T08:53:14;5.10;99.90
19898;DHT22;10111;50.814;4.572;2022-12-07T08:55:39;5.30;99.90
19898;DHT22;10111;50.814;4.572;2022-12-07T08:58:05;5.30;99.90
19898;DHT22;10111;50.814;4.572;2022-12-07T09:00:31;5.50;99.90
19898;DHT22;10111;50.814;4.572;2022-12-07T09:02:57;5.70;99.90
19898;DHT22;10111;50.814;4.572;2022-12-07T09:05:22;5.60;99.90
19898;DHT22;10111;50.814;4.572;2022-12-07T09:07:50;5.70;99.90
19898;DHT22;10111;50.814;4.572;2022-12-07T09:10:17;5.80;99.90
19898;DHT22;10111;50.814;4.572;2022-12-07T09:12:43;6.00;99.90
19898;DHT22;10111;50.814;4.572;2022-12-07T09:15:09;6.30;99.90
19898;DHT22;10111;50.814;4.572;2022-12-07T09:17:35;6.30;99.90
19898;DHT22;10111;50.814;4.572;2022-12-07T09:20:02;6.50;99.90
19898;DHT22;10111;50.814;4.572;2022-12-07T09:22:31;6.60;99.90
19898;DHT22;10111;50.814;4.572;2022-12-07T09:24:57;6.80;99.90
19898;DHT22;10111;50.814;4.572;2022-12-07T09:27:24;6.90;99.90
19898;DHT22;10111;50.814;4.572;2022-12-07T09:29:49;7.00;99.90
19898;DHT22;10111;50.814;4.572;2022-12-07T09:32:15;7.10;99.90
19898;DHT22;10111;50.814;4.572;2022-12-07T09:34:40;7.10;99.90
19898;DHT22;10111;50.814;4.572;2022-12-07T09:37:06;7.10;99.90
19898;DHT22;10111;50.814;4.572;2022-12-07T09:39:32;7.00;99.90
19898;DHT22;10111;50.814;4.572;2022-12-07T09:41:59;7.00;99.90
19898;DHT22;10111;50.814;4.572;2022-12-07T09:44:27;7.20;99.90
19898;DHT22;10111;50.814;4.572;2022-12-07T09:46:54;7.30;99.90
19898;DHT22;10111;50.814;4.572;2022-12-07T09:49:25;7.60;99.90
19898;DHT22;10111;50.814;4.572;2022-12-07T09:54:27;7.80;99.90
19898;DHT22;10111;50.814;4.572;2022-12-07T09:56:53;7.90;99.90
19898;DHT22;10111;50.814;4.572;2022-12-07T09:59:19;8.10;99.90
19898;DHT22;10111;50.814;4.572;2022-12-07T10:01:47;8.00;99.90
19898;DHT22;10111;50.814;4.572;2022-12-07T10:04:20;8.00;99.90
19898;DHT22;10111;50.814;4.572;2022-12-07T10:06:46;7.90;99.90
19898;DHT22;10111;50.814;4.572;2022-12-07T10:09:17;7.70;99.90
19898;DHT22;10111;50.814;4.572;2022-12-07T10:12:22;7.50;99.90
19898;DHT22;10111;50.814;4.572;2022-12-07T10:15:02;7.30;99.90
19898;DHT22;10111;50.814;4.572;2022-12-07T10:17:33;7.30;99.90
19898;DHT22;10111;50.814;4.572;2022-12-07T10:22:37;7.40;99.90
19898;DHT22;10111;50.814;4.572;2022-12-07T10:25:19;7.40;99.90
19898;DHT22;10111;50.814;4.572;2022-12-07T10:27:57;7.30;99.90
19898;DHT22;10111;50.814;4.572;2022-12-07T10:30:23;7.50;99.90
19898;DHT22;10111;50.814;4.572;2022-12-07T10:32:49;7.50;99.90
19898;DHT22;10111;50.814;4.572;2022-12-07T10:35:24;7.50;99.90
19898;DHT22;10111;50.814;4.572;2022-12-07T10:37:53;7.50;99.90
19898;DHT22;10111;50.814;4.572;2022-12-07T10:40:34;7.70;99.90
19898;DHT22;10111;50.814;4.572;2022-12-07T10:43:18;7.70;99.90
19898;DHT22;10111;50.814;4.572;2022-12-07T10:54:48;8.10;99.90
19898;DHT22;10111;50.814;4.572;2022-12-07T11:01:01;8.30;99.90
19898;DHT22;10111;50.814;4.572;2022-12-07T11:17:03;8.60;99.90
19898;DHT22;10111;50.814;4.572;2022-12-07T11:19:46;8.60;99.90
19898;DHT22;10111;50.814;4.572;2022-12-07T11:37:51;8.00;99.90
19898;DHT22;10111;50.814;4.572;2022-12-07T11:40:31;7.90;99.90
19898;DHT22;10111;50.814;4.572;2022-12-07T11:45:34;8.10;99.90
19898;DHT22;10111;50.814;4.572;2022-12-07T11:48:06;8.10;99.90
19898;DHT22;10111;50.814;4.572;2022-12-07T11:50:48;8.20;99.90
19898;DHT22;10111;50.814;4.572;2022-12-07T11:53:19;8.10;99.90
19898;DHT22;10111;50.814;4.572;2022-12-07T11:56:12;8.00;99.90
19898;DHT22;10111;50.814;4.572;2022-12-07T12:01:47;8.30;99.90
19898;DHT22;10111;50.814;4.572;2022-12-07T12:04:27;8.30;99.90
19898;DHT22;10111;50.814;4.572;2022-12-07T12:06:55;8.30;99.90
19898;DHT22;10111;50.814;4.572;2022-12-07T12:09:32;8.20;99.90
19898;DHT22;10111;50.814;4.572;2022-12-07T12:18:03;8.20;99.90
19898;DHT22;10111;50.814;4.572;2022-12-07T12:20:45;8.40;99.90
19898;DHT22;10111;50.814;4.572;2022-12-07T12:23:16;8.00;99.90
19898;DHT22;10111;50.814;4.572;2022-12-07T12:25:48;8.00;99.90
19898;DHT22;10111;50.814;4.572;2022-12-07T12:28:40;8.30;99.90
19898;DHT22;10111;50.814;4.572;2022-12-07T12:33:45;8.70;99.90
19898;DHT22;10111;50.814;4.572;2022-12-07T12:46:51;8.40;99.90
19898;DHT22;10111;50.814;4.572;2022-12-07T12:51:55;8.30;99.90
19898;DHT22;10111;50.814;4.572;2022-12-07T12:54:31;8.20;99.90
19898;DHT22;10111;50.814;4.572;2022-12-07T12:57:17;8.10;99.90
19898;DHT22;10111;50.814;4.572;2022-12-07T13:02:25;7.90;99.90
19898;DHT22;10111;50.814;4.572;2022-12-07T13:04:56;8.00;99.90
19898;DHT22;10111;50.814;4.572;2022-12-07T13:15:47;8.30;99.90
19898;DHT22;10111;50.814;4.572;2022-12-07T13:28:50;8.10;99.90
19898;DHT22;10111;50.814;4.572;2022-12-07T13:33:47;8.00;99.90
19898;DHT22;10111;50.814;4.572;2022-12-07T13:38:56;8.50;99.90
19898;DHT22;10111;50.814;4.572;2022-12-07T13:41:25;8.60;99.90
19898;DHT22;10111;50.814;4.572;2022-12-07T13:44:05;8.60;99.90
19898;DHT22;10111;50.814;4.572;2022-12-07T13:49:49;8.30;99.90
19898;DHT22;10111;50.814;4.572;2022-12-07T13:52:27;8.20;99.90
19898;DHT22;10111;50.814;4.572;2022-12-07T13:57:33;8.10;99.90
19898;DHT22;10111;50.814;4.572;2022-12-07T14:00:00;8.10;99.90
19898;DHT22;10111;50.814;4.572;2022-12-07T14:02:34;8.00;99.90
19898;DHT22;10111;50.814;4.572;2022-12-07T14:05:32;8.00;99.90
19898;DHT22;10111;50.814;4.572;2022-12-07T14:08:02;8.10;99.90
19898;DHT22;10111;50.814;4.572;2022-12-07T14:10:33;8.10;99.90
19898;DHT22;10111;50.814;4.572;2022-12-07T14:13:00;8.10;99.90
19898;DHT22;10111;50.814;4.572;2022-12-07T14:15:31;8.20;99.90
19898;DHT22;10111;50.814;4.572;2022-12-07T14:17:58;8.70;99.90
19898;DHT22;10111;50.814;4.572;2022-12-07T14:20:39;8.60;99.90
19898;DHT22;10111;50.814;4.572;2022-12-07T14:23:24;8.50;99.90
19898;DHT22;10111;50.814;4.572;2022-12-07T14:25:52;8.40;99.90
19898;DHT22;10111;50.814;4.572;2022-12-07T14:28:30;8.30;99.90
19898;DHT22;10111;50.814;4.572;2022-12-07T14:30:57;8.20;99.90
19898;DHT22;10111;50.814;4.572;2022-12-07T14:33:24;8.40;99.90
19898;DHT22;10111;50.814;4.572;2022-12-07T14:35:50;8.60;99.90
19898;DHT22;10111;50.814;4.572;2022-12-07T14:38:20;8.80;99.90
19898;DHT22;10111;50.814;4.572;2022-12-07T14:40:46;8.60;99.90
19898;DHT22;10111;50.814;4.572;2022-12-07T14:43:13;8.50;99.90
19898;DHT22;10111;50.814;4.572;2022-12-07T14:45:39;8.40;99.90
19898;DHT22;10111;50.814;4.572;2022-12-07T14:48:06;8.10;99.90
19898;DHT22;10111;50.814;4.572;2022-12-07T14:50:36;8.00;99.90
19898;DHT22;10111;50.814;4.572;2022-12-07T14:53:18;8.00;99.90
19898;DHT22;10111;50.814;4.572;2022-12-07T14:55:47;8.00;99.90
19898;DHT22;10111;50.814;4.572;2022-12-07T14:58:14;7.90;99.90
19898;DHT22;10111;50.814;4.572;2022-12-07T15:00:40;7.80;99.90
19898;DHT22;10111;50.814;4.572;2022-12-07T15:03:06;7.70;99.90
19898;DHT22;10111;50.814;4.572;2022-12-07T15:05:32;7.60;99.90
19898;DHT22;10111;50.814;4.572;2022-12-07T15:07:58;7.70;99.90
19898;DHT22;10111;50.814;4.572;2022-12-07T15:10:28;7.70;99.90
19898;DHT22;10111;50.814;4.572;2022-12-07T15:12:59;7.50;99.90
19898;DHT22;10111;50.814;4.572;2022-12-07T15:15:45;7.60;99.90
19898;DHT22;10111;50.814;4.572;2022-12-07T15:18:11;7.70;99.90
19898;DHT22;10111;50.814;4.572;2022-12-07T15:20:37;7.60;99.90
19898;DHT22;10111;50.814;4.572;2022-12-07T15:23:03;7.50;99.90
19898;DHT22;10111;50.814;4.572;2022-12-07T15:25:29;7.40;99.90
19898;DHT22;10111;50.814;4.572;2022-12-07T15:27:54;7.50;99.90
19898;DHT22;10111;50.814;4.572;2022-12-07T15:30:20;7.50;99.90
19898;DHT22;10111;50.814;4.572;2022-12-07T15:32:49;7.60;99.90
19898;DHT22;10111;50.814;4.572;2022-12-07T15:35:15;7.60;99.90
19898;DHT22;10111;50.814;4.572;2022-12-07T15:37:41;7.50;99.90
19898;DHT22;10111;50.814;4.572;2022-12-07T15:40:07;7.60;99.90
19898;DHT22;10111;50.814;4.572;2022-12-07T15:42:33;7.60;99.90
19898;DHT22;10111;50.814;4.572;2022-12-07T15:45:00;7.60;99.90
19898;DHT22;10111;50.814;4.572;2022-12-07T15:47:36;7.60;99.90
19898;DHT22;10111;50.814;4.572;2022-12-07T15:50:03;7.80;99.90
19898;DHT22;10111;50.814;4.572;2022-12-07T15:52:30;7.50;99.90
19898;DHT22;10111;50.814;4.572;2022-12-07T15:54:55;7.30;99.90
19898;DHT22;10111;50.814;4.572;2022-12-07T15:57:21;7.30;99.90
19898;DHT22;10111;50.814;4.572;2022-12-07T15:59:50;7.50;99.90
19898;DHT22;10111;50.814;4.572;2022-12-07T16:02:16;7.40;99.90
19898;DHT22;10111;50.814;4.572;2022-12-07T16:04:42;7.40;99.90
19898;DHT22;10111;50.814;4.572;2022-12-07T16:07:08;7.20;99.90
19898;DHT22;10111;50.814;4.572;2022-12-07T16:09:33;7.20;99.90
19898;DHT22;10111;50.814;4.572;2022-12-07T16:11:59;7.20;99.90
19898;DHT22;10111;50.814;4.572;2022-12-07T16:14:24;7.40;99.90
19898;DHT22;10111;50.814;4.572;2022-12-07T16:16:50;7.50;99.90
19898;DHT22;10111;50.814;4.572;2022-12-07T16:19:16;7.80;99.90
19898;DHT22;10111;50.814;4.572;2022-12-07T16:21:42;7.80;99.90
19898;DHT22;10111;50.814;4.572;2022-12-07T16:24:08;7.30;99.90
19898;DHT22;10111;50.814;4.572;2022-12-07T16:26:34;7.40;99.90
19898;DHT22;10111;50.814;4.572;2022-12-07T16:28:59;7.60;99.90
19898;DHT22;10111;50.814;4.572;2022-12-07T16:31:27;7.40;99.90
19898;DHT22;10111;50.814;4.572;2022-12-07T16:33:54;7.50;99.90
19898;DHT22;10111;50.814;4.572;2022-12-07T16:36:20;7.60;99.90
19898;DHT22;10111;50.814;4.572;2022-12-07T16:38:47;7.50;99.90
19898;DHT22;10111;50.814;4.572;2022-12-07T16:41:13;7.40;99.90
19898;DHT22;10111;50.814;4.572;2022-12-07T16:43:39;7.50;99.90
19898;DHT22;10111;50.814;4.572;2022-12-07T16:46:05;7.50;99.90
19898;DHT22;10111;50.814;4.572;2022-12-07T16:48:31;7.50;99.90
19898;DHT22;10111;50.814;4.572;2022-12-07T16:50:56;7.30;99.90
19898;DHT22;10111;50.814;4.572;2022-12-07T16:53:23;7.40;99.90
19898;DHT22;10111;50.814;4.572;2022-12-07T16:55:50;7.10;99.90
19898;DHT22;10111;50.814;4.572;2022-12-07T16:58:16;7.20;99.90
19898;DHT22;10111;50.814;4.572;2022-12-07T17:00:43;7.00;99.90
19898;DHT22;10111;50.814;4.572;2022-12-07T17:03:12;6.90;99.90
19898;DHT22;10111;50.814;4.572;2022-12-07T17:05:41;6.90;99.90
19898;DHT22;10111;50.814;4.572;2022-12-07T17:08:08;7.10;99.90
19898;DHT22;10111;50.814;4.572;2022-12-07T17:10:36;6.90;99.90
19898;DHT22;10111;50.814;4.572;2022-12-07T17:13:03;6.90;99.90
19898;DHT22;10111;50.814;4.572;2022-12-07T17:16:00;7.00;99.90
19898;DHT22;10111;50.814;4.572;2022-12-07T17:18:31;6.80;99.90
19898;DHT22;10111;50.814;4.572;2022-12-07T17:21:06;6.80;99.90
19898;DHT22;10111;50.814;4.572;2022-12-07T17:23:33;6.80;99.90
19898;DHT22;10111;50.814;4.572;2022-12-07T17:26:07;6.90;99.90
19898;DHT22;10111;50.814;4.572;2022-12-07T17:28:33;6.80;99.90
19898;DHT22;10111;50.814;4.572;2022-12-07T17:30:59;6.80;99.90
19898;DHT22;10111;50.814;4.572;2022-12-07T17:33:25;6.90;99.90
19898;DHT22;10111;50.814;4.572;2022-12-07T17:35:50;6.90;99.90
19898;DHT22;10111;50.814;4.572;2022-12-07T17:38:16;7.00;99.90
19898;DHT22;10111;50.814;4.572;2022-12-07T17:40:42;7.00;99.90
19898;DHT22;10111;50.814;4.572;2022-12-07T17:43:07;6.90;99.90
19898;DHT22;10111;50.814;4.572;2022-12-07T17:45:33;7.00;99.90
19898;DHT22;10111;50.814;4.572;2022-12-07T17:48:01;7.10;99.90
19898;DHT22;10111;50.814;4.572;2022-12-07T17:50:26;7.10;99.90
19898;DHT22;10111;50.814;4.572;2022-12-07T17:53:11;7.10;99.90
19898;DHT22;10111;50.814;4.572;2022-12-07T17:55:37;7.00;99.90
19898;DHT22;10111;50.814;4.572;2022-12-07T17:58:04;7.10;99.90
19898;DHT22;10111;50.814;4.572;2022-12-07T18:00:30;7.00;99.90
19898;DHT22;10111;50.814;4.572;2022-12-07T18:03:01;6.90;99.90
19898;DHT22;10111;50.814;4.572;2022-12-07T18:05:26;6.90;99.90